• Join FlightAware (Why Join?)
  • Login
  • US Flag 
01:57AM EST


 

Airport Tracker/Info


-or-


 

Live Flight TrackerFlight Track Log ✈ ASQ5745 ✈ 21-May-2013 ✈ KIAD - KALB

Flight Track Log - Related Links

Times and Time Zones

All times are in EDT time to prevent confusion due to time zone crossing. See the ASQ5745 flight status page for this flight to view local times or setup timezone preferences in your user account.

Time Position Orientation Groundspeed Altitude Reporting Facility
EDT Latitude Longitude Course Direction KTS MPH feet Rate Location/Type
08:40AM 38.9500 -77.5000 North 176 203 1,400  Level Potomac TRACON
08:42AM 39.0739 -77.6022 327° Northwest 244 281 6,400 2,100 Climbing Washington Center
08:43AM 39.3010 -77.4500 North  Level FlightAware Approximate
08:43AM 39.1383 -77.6014 North 244 281 8,500  Level Washington Center
08:44AM 39.3929 -77.4500 North  Level FlightAware Approximate
08:44AM 39.2322 -77.5986 North 278 320 10,700  Level Washington Center
08:45AM 39.4848 -77.4500 North  Level FlightAware Approximate
08:45AM 39.3203 -77.5714 13° North 300 345 12,000  Level Washington Center
08:46AM 39.3878 -77.5117 34° Northeast 319 367 13,300 1,620 Climbing Washington Center
08:47AM 39.4128 -77.3939 75° East 300 345 15,300 1,680 Climbing Washington Center
08:50AM 39.6447 -77.4522 349° North 319 367 19,200 1,380 Climbing New York Center
08:51AM 39.7447 -77.4536 359° North 333 383 20,300 960 Climbing New York Center
08:52AM 39.8461 -77.4336 North 359 413 21,200 900 Climbing New York Center
08:53AM 39.9453 -77.3781 23° Northeast 365 420 22,200 900 Climbing New York Center
08:54AM 40.0464 -77.3197 24° Northeast 377 434 23,100 780 Climbing New York Center
08:55AM 40.1300 -77.2789 20° North 388 447 23,800 840 Climbing New York Center
08:56AM 40.2397 -77.2183 23° Northeast 388 447 24,800 600 Climbing New York Center
08:57AM 40.3428 -77.1597 23° Northeast 388 447 25,000 60 Climbing New York Center
08:58AM 40.4522 -77.1017 22° Northeast 398 458 25,000  Level New York Center
08:59AM 40.5617 -77.0436 22° Northeast 412 474 25,000  Level New York Center
09:00AM 40.6733 -76.9825 23° Northeast 412 474 25,000  Level New York Center
09:01AM 40.7828 -76.9211 23° Northeast 422 486 25,000  Level New York Center
09:02AM 40.8922 -76.8597 23° Northeast 422 486 25,000  Level New York Center
09:03AM 41.0017 -76.7981 23° Northeast 422 486 25,000  Level New York Center
09:04AM 41.1133 -76.7361 23° Northeast 422 486 25,000  Level New York Center
09:05AM 41.2247 -76.6744 23° Northeast 422 486 25,000  Level New York Center
09:06AM 41.3361 -76.6122 23° Northeast 422 486 25,000  Level New York Center
09:07AM 41.4494 -76.5500 22° Northeast 427 491 25,000  Level New York Center
09:08AM 41.5589 -76.4847 24° Northeast 427 491 25,000  Level New York Center
09:09AM 41.6681 -76.4217 23° Northeast 427 491 25,000  Level New York Center
09:10AM 41.7817 -76.3564 23° Northeast 422 486 25,000 -360 Level New York Center
09:11AM 41.9483 -76.2592 23° Northeast 429 494 24,200 -420 Descending Boston Center
09:12AM 42.0567 -76.1958 23° Northeast 424 488 24,000 -120 Descending Boston Center
09:13AM 42.1569 -76.1261 27° Northeast 414 476 24,000  Level Boston Center
09:14AM 42.2022 -76.0167 61° Northeast 389 448 24,000  Level Boston Center
09:15AM 42.2594 -75.8486 65° Northeast 397 457 24,000  Level Boston Center
09:16AM 42.2994 -75.6936 71° East 397 457 24,000  Level Boston Center
09:17AM 42.3347 -75.5522 71° East 397 457 24,000 -60 Level Boston Center
09:18AM 42.3681 -75.4022 73° East 397 457 23,900 -1,140 Descending Boston Center
09:19AM 42.4075 -75.2464 71° East 408 470 21,800 -2,160 Descending Boston Center
09:20AM 42.4467 -75.0822 72° East 429 494 19,600 -2,220 Descending Boston Center
09:21AM 42.4858 -74.9233 71° East 444 511 17,400 -2,220 Descending Boston Center
09:22AM 42.5244 -74.7672 71° East 439 505 15,200 -2,340 Descending Boston Center
09:23AM 42.5336 -74.7308 71° East 437 503 14,500 -2,220 Descending Boston Center
09:23AM 42.5567 -74.6217 74° East 433 498 13,000 -2,160 Descending Boston Center
09:24AM 42.5744 -74.5603 69° East 434 499 12,100 -2,040 Descending Boston Center
09:24AM 42.5928 -74.4764 73° East 428 493 11,000 -1,440 Descending Boston Center
09:25AM 42.6186 -74.4236 56° Northeast 405 466 10,700 -720 Descending Boston Center
09:25AM 42.6528 -74.3683 50° Northeast 381 438 10,300 -900 Descending Boston Center
09:26AM 42.6764 -74.3294 50° Northeast 327 376 9,800 -1,620 Descending Boston Center
09:26AM 42.7108 -74.2739 50° Northeast 346 398 8,700 -1,980 Descending Boston Center
09:27AM 42.7406 -74.2267 49° Northeast 282 325 7,600 -1,800 Descending Boston Center
09:27AM 42.7578 -74.1961 52° Northeast 303 349 6,900 -1,680 Descending Boston Center
09:28AM 42.7814 -74.1572 50° Northeast 287 330 6,100 -1,800 Descending Boston Center
09:28AM 42.8133 -74.1100 47° Northeast 295 339 5,100 -1,140 Descending Boston Center
09:29AM 42.8325 -74.0764 52° Northeast 283 326 5,000 -120 Descending Boston Center
09:29AM 42.8625 -74.0264 51° Northeast 289 333 5,000 -540 Level Boston Center
09:30AM 42.8861 -73.9789 56° Northeast 279 321 4,500 -1,020 Descending Boston Center
09:30AM 42.9094 -73.9425 49° Northeast 288 331 4,000 -480 Descending Boston Center
09:31AM 42.9414 -73.8894 51° Northeast 281 323 4,000  Level Boston Center
09:31AM 42.9461 -73.8469 81° East 282 325 4,000  Level Boston Center
09:32AM 42.9111 -73.8150 146° Southeast 343 395 4,000  Level Boston Center